createdAt,value
2023-03-28T00:01:03.860Z,4.97
2023-03-28T00:03:36.020Z,5.38
2023-03-28T00:06:05.948Z,4.78
2023-03-28T00:08:33.471Z,4.07
2023-03-28T00:11:12.966Z,4.82
2023-03-28T00:13:40.064Z,4.28
2023-03-28T00:16:10.150Z,4.53
2023-03-28T00:18:39.506Z,4.97
2023-03-28T00:21:29.478Z,4.72
2023-03-28T00:24:02.131Z,5.30
2023-03-28T00:26:35.895Z,4.13
2023-03-28T00:29:06.410Z,5.28
2023-03-28T00:31:35.343Z,4.95
2023-03-28T00:34:02.588Z,4.80
2023-03-28T00:36:33.018Z,5.30
2023-03-28T00:39:01.939Z,4.53
2023-03-28T00:41:33.281Z,4.50
2023-03-28T00:44:01.549Z,4.32
2023-03-28T00:46:48.991Z,4.43
2023-03-28T00:49:25.173Z,4.38
2023-03-28T00:52:03.402Z,5.07
2023-03-28T00:54:34.541Z,4.45
2023-03-28T00:57:04.104Z,3.55
2023-03-28T00:59:34.368Z,4.05
2023-03-28T01:02:02.072Z,4.35
2023-03-28T01:04:36.708Z,4.13
2023-03-28T01:07:04.706Z,4.00
2023-03-28T01:09:32.062Z,4.32
2023-03-28T01:12:00.188Z,4.43
2023-03-28T01:14:29.438Z,5.20
2023-03-28T01:17:02.703Z,4.55
2023-03-28T01:19:51.509Z,4.82
2023-03-28T01:22:57.167Z,4.57
2023-03-28T01:26:09.440Z,4.28
2023-03-28T01:28:55.077Z,4.00
2023-03-28T01:31:40.573Z,4.28
2023-03-28T01:34:21.352Z,3.40
2023-03-28T01:36:54.132Z,4.03
2023-03-28T01:39:54.818Z,3.97
2023-03-28T01:43:09.499Z,3.67
2023-03-28T01:45:45.191Z,4.22
2023-03-28T01:48:40.286Z,4.90
2023-03-28T01:51:50.778Z,4.05
2023-03-28T01:54:41.741Z,3.55
2023-03-28T01:57:15.867Z,3.67
2023-03-28T01:59:50.359Z,3.75
2023-03-28T02:02:35.657Z,3.70
2023-03-28T02:05:08.012Z,5.13
2023-03-28T02:07:35.605Z,4.40
2023-03-28T02:10:07.033Z,3.60
2023-03-28T02:12:38.421Z,3.85
2023-03-28T02:15:08.871Z,4.35
2023-03-28T02:17:42.019Z,4.10
2023-03-28T02:20:14.864Z,4.53
2023-03-28T02:23:01.464Z,3.70
2023-03-28T02:25:29.892Z,3.97
2023-03-28T02:28:03.224Z,3.63
2023-03-28T02:30:30.307Z,4.40
2023-03-28T02:33:03.704Z,3.28
2023-03-28T02:35:51.617Z,3.65
2023-03-28T02:38:37.337Z,3.67
2023-03-28T02:41:41.155Z,4.43
2023-03-28T02:44:39.064Z,3.60
2023-03-28T02:47:21.933Z,3.30
2023-03-28T02:49:51.864Z,3.70
2023-03-28T02:53:00.018Z,4.30
2023-03-28T02:55:36.228Z,3.50
2023-03-28T02:58:47.671Z,4.22
2023-03-28T03:01:15.300Z,4.03
2023-03-28T03:03:46.156Z,4.03
2023-03-28T03:06:13.197Z,3.85
2023-03-28T03:08:40.361Z,3.05
2023-03-28T03:11:07.544Z,3.88
2023-03-28T03:13:34.684Z,3.85
2023-03-28T03:16:02.448Z,4.32
2023-03-28T03:18:29.756Z,3.83
2023-03-28T03:20:57.136Z,3.72
2023-03-28T03:23:24.299Z,3.58
2023-03-28T03:25:52.092Z,3.85
2023-03-28T03:28:19.295Z,3.53
2023-03-28T03:30:46.657Z,3.20
2023-03-28T03:33:17.326Z,3.45
2023-03-28T03:35:46.512Z,3.42
2023-03-28T03:38:14.118Z,3.70
2023-03-28T03:40:41.416Z,3.30
2023-03-28T03:43:08.582Z,3.67
2023-03-28T03:45:35.843Z,3.55
2023-03-28T03:48:02.955Z,3.90
2023-03-28T03:50:30.123Z,3.63
2023-03-28T03:52:58.399Z,3.80
2023-03-28T03:55:26.952Z,3.50
2023-03-28T03:57:54.019Z,3.72
2023-03-28T04:00:21.258Z,3.85
2023-03-28T04:02:49.464Z,4.03
2023-03-28T04:05:16.687Z,3.15
2023-03-28T04:07:43.735Z,3.40
2023-03-28T04:10:11.429Z,3.40
2023-03-28T04:12:38.507Z,3.25
2023-03-28T04:15:06.990Z,2.97
2023-03-28T04:17:35.835Z,3.30
2023-03-28T04:20:13.900Z,3.60
2023-03-28T04:22:45.596Z,3.53
2023-03-28T04:25:14.401Z,3.13
2023-03-28T04:27:49.037Z,2.75
2023-03-28T04:30:18.330Z,2.53
2023-03-28T04:32:49.723Z,2.30
2023-03-28T04:35:17.093Z,2.80
2023-03-28T04:37:44.299Z,2.50
2023-03-28T04:40:11.642Z,2.70
2023-03-28T04:42:40.005Z,2.78
2023-03-28T04:45:08.665Z,2.53
2023-03-28T04:47:37.849Z,3.75
2023-03-28T04:50:05.279Z,2.58
2023-03-28T04:52:32.421Z,3.10
2023-03-28T04:54:59.437Z,2.80
2023-03-28T04:57:26.583Z,2.80
2023-03-28T04:59:53.666Z,2.50
2023-03-28T05:02:20.842Z,2.45
2023-03-28T05:04:47.996Z,3.00
2023-03-28T05:07:15.080Z,2.33
2023-03-28T05:09:42.309Z,2.80
2023-03-28T05:12:09.639Z,2.33
2023-03-28T05:14:36.798Z,2.33
2023-03-28T05:17:03.809Z,2.50
2023-03-28T05:19:31.561Z,2.50
2023-03-28T05:21:58.530Z,2.90
2023-03-28T05:24:25.585Z,3.35
2023-03-28T05:26:52.673Z,2.72
2023-03-28T05:29:19.778Z,2.58
2023-03-28T05:31:46.834Z,3.35
2023-03-28T05:34:13.873Z,2.60
2023-03-28T05:36:41.335Z,2.42
2023-03-28T05:39:08.571Z,2.42
2023-03-28T05:41:35.602Z,1.90
2023-03-28T05:44:04.582Z,2.53
2023-03-28T05:46:31.625Z,2.97
2023-03-28T05:48:58.739Z,2.78
2023-03-28T05:51:26.251Z,2.58
2023-03-28T05:53:53.301Z,2.40
2023-03-28T05:56:20.362Z,2.33
2023-03-28T05:58:48.635Z,2.67
2023-03-28T06:01:18.274Z,2.50
2023-03-28T06:03:46.073Z,2.40
2023-03-28T06:06:13.795Z,2.65
2023-03-28T06:08:40.998Z,2.83
2023-03-28T06:11:08.461Z,2.10
2023-03-28T06:13:35.742Z,2.10
2023-03-28T06:16:02.950Z,2.78
2023-03-28T06:18:30.261Z,3.08
2023-03-28T06:20:57.632Z,2.33
2023-03-28T06:23:25.405Z,2.55
2023-03-28T06:25:52.496Z,2.40
2023-03-28T06:28:19.835Z,3.15
2023-03-28T06:30:50.994Z,3.20
2023-03-28T06:33:18.118Z,3.03
2023-03-28T06:35:45.257Z,2.47
2023-03-28T06:38:12.492Z,2.92
2023-03-28T06:40:39.616Z,2.40
2023-03-28T06:43:06.901Z,2.70
2023-03-28T06:45:34.059Z,3.15
2023-03-28T06:48:01.285Z,2.95
2023-03-28T06:50:28.377Z,2.45
2023-03-28T06:52:56.227Z,2.33
2023-03-28T06:55:23.312Z,2.30
2023-03-28T06:57:50.426Z,2.03
2023-03-28T07:00:18.383Z,2.60
2023-03-28T07:02:45.543Z,2.65
2023-03-28T07:05:12.709Z,3.15
2023-03-28T07:07:39.906Z,2.70
2023-03-28T07:10:07.862Z,3.17
2023-03-28T07:12:34.968Z,2.67
2023-03-28T07:15:02.149Z,2.00
2023-03-28T07:17:29.469Z,2.75
2023-03-28T07:19:57.692Z,2.03
2023-03-28T07:22:24.850Z,2.28
2023-03-28T07:24:51.908Z,2.17
2023-03-28T07:27:18.939Z,2.58
2023-03-28T07:29:46.404Z,2.15
2023-03-28T07:32:14.570Z,2.53
2023-03-28T07:34:42.135Z,2.83
2023-03-28T07:37:09.671Z,2.28
2023-03-28T07:39:40.197Z,2.30
2023-03-28T07:42:12.021Z,2.42
2023-03-28T07:44:42.253Z,2.38
2023-03-28T07:47:10.386Z,3.60
2023-03-28T07:49:37.436Z,2.22
2023-03-28T07:52:04.892Z,2.10
2023-03-28T07:54:33.496Z,2.15
2023-03-28T07:57:00.896Z,2.20
2023-03-28T07:59:27.976Z,2.20
2023-03-28T08:01:55.281Z,2.30
2023-03-28T08:04:22.550Z,2.80
2023-03-28T08:06:52.480Z,2.30
2023-03-28T08:09:20.281Z,1.80
2023-03-28T08:11:48.152Z,1.85
2023-03-28T08:14:17.772Z,2.03
2023-03-28T08:16:47.286Z,2.00
2023-03-28T08:19:14.749Z,1.80
2023-03-28T08:21:41.872Z,1.80
2023-03-28T08:24:17.379Z,2.50
2023-03-28T08:26:50.167Z,2.00
2023-03-28T08:29:17.251Z,2.40
2023-03-28T08:31:44.313Z,1.90
2023-03-28T08:34:11.571Z,2.05
2023-03-28T08:36:38.641Z,1.80
2023-03-28T08:39:05.670Z,1.60
2023-03-28T08:41:42.939Z,1.75
2023-03-28T08:44:17.221Z,1.48
2023-03-28T08:46:47.183Z,1.90
2023-03-28T08:49:18.645Z,1.80
2023-03-28T08:52:06.342Z,1.58
2023-03-28T08:54:33.371Z,1.20
2023-03-28T08:57:04.457Z,1.48
2023-03-28T09:00:09.420Z,1.20
2023-03-28T09:02:36.795Z,1.10
2023-03-28T09:05:22.043Z,1.52
2023-03-28T09:08:06.432Z,1.45
2023-03-28T09:10:47.110Z,1.35
2023-03-28T09:13:48.011Z,1.83
2023-03-28T09:16:56.627Z,1.92
2023-03-28T09:19:44.721Z,1.75
2023-03-28T09:22:29.462Z,1.90
2023-03-28T09:25:03.745Z,1.90
2023-03-28T09:27:49.040Z,2.08
2023-03-28T09:30:16.032Z,2.58
2023-03-28T09:32:44.103Z,1.50
2023-03-28T09:35:23.260Z,1.20
2023-03-28T09:37:59.214Z,1.10
2023-03-28T09:40:32.280Z,1.98
2023-03-28T09:43:17.953Z,2.75
2023-03-28T09:46:16.094Z,3.50
2023-03-28T09:48:43.424Z,3.85
2023-03-28T09:51:17.330Z,4.10
2023-03-28T09:53:44.611Z,4.38
2023-03-28T09:56:29.970Z,4.13
2023-03-28T09:59:04.536Z,2.67
2023-03-28T10:01:37.202Z,2.00
2023-03-28T10:04:14.424Z,1.50
2023-03-28T10:06:43.044Z,1.80
2023-03-28T10:09:25.446Z,1.95
2023-03-28T10:11:59.574Z,1.70
2023-03-28T10:14:36.617Z,1.98
2023-03-28T10:17:07.343Z,2.53
2023-03-28T10:19:42.324Z,2.40
2023-03-28T10:22:14.582Z,2.80
2023-03-28T10:24:42.153Z,2.95
2023-03-28T10:27:18.431Z,3.30
2023-03-28T10:29:47.341Z,2.20
2023-03-28T10:32:27.711Z,3.00
2023-03-28T10:35:06.973Z,2.03
2023-03-28T10:37:35.400Z,2.42
2023-03-28T10:40:22.827Z,2.45
2023-03-28T10:42:51.586Z,1.40
2023-03-28T10:45:43.368Z,1.48
2023-03-28T10:48:13.408Z,1.50
2023-03-28T10:50:49.729Z,1.30
2023-03-28T10:53:55.511Z,1.20
2023-03-28T10:56:58.026Z,1.38
2023-03-28T10:59:25.093Z,0.70
2023-03-28T11:02:28.222Z,0.85
2023-03-28T11:05:10.257Z,0.80
2023-03-28T11:07:56.115Z,0.93
2023-03-28T11:10:44.570Z,1.02
2023-03-28T11:13:22.365Z,0.77
2023-03-28T11:16:35.671Z,0.82
2023-03-28T11:19:02.964Z,1.00
2023-03-28T11:21:39.218Z,0.70
2023-03-28T11:24:22.854Z,0.77
2023-03-28T11:27:16.411Z,1.00
2023-03-28T11:30:21.345Z,2.30
2023-03-28T11:32:55.189Z,2.53
2023-03-28T11:35:32.930Z,1.00
2023-03-28T11:38:04.171Z,1.20
2023-03-28T11:40:45.309Z,1.20
2023-03-28T11:43:17.242Z,3.63
2023-03-28T11:45:53.427Z,3.47
2023-03-28T11:48:23.740Z,6.45
2023-03-28T11:51:17.806Z,4.32
2023-03-28T11:56:54.169Z,2.38
2023-03-28T11:59:23.993Z,3.78
2023-03-28T12:01:57.768Z,5.00
2023-03-28T12:04:37.879Z,3.83
2023-03-28T12:07:22.478Z,4.78
2023-03-28T12:10:11.552Z,4.85
2023-03-28T12:12:55.659Z,7.63
2023-03-28T12:15:30.136Z,10.55
2023-03-28T12:18:04.718Z,6.80
2023-03-28T12:21:00.862Z,4.95
2023-03-28T12:23:38.126Z,10.30
2023-03-28T12:26:21.597Z,5.57
2023-03-28T12:28:55.073Z,4.85
2023-03-28T12:34:19.707Z,13.00
2023-03-28T12:37:02.175Z,13.68
2023-03-28T12:39:50.755Z,6.72
2023-03-28T12:42:20.988Z,7.10
2023-03-28T12:45:04.504Z,5.25
2023-03-28T12:47:36.848Z,6.32
2023-03-28T12:50:25.444Z,6.88
2023-03-28T12:52:53.272Z,9.95
2023-03-28T12:55:26.726Z,7.45
2023-03-28T13:00:51.480Z,4.78
2023-03-28T13:03:31.750Z,5.38
2023-03-28T13:06:26.411Z,6.82
2023-03-28T13:09:20.634Z,3.90
2023-03-28T13:12:02.391Z,10.10
2023-03-28T13:14:42.924Z,9.40
2023-03-28T13:17:27.680Z,6.28
2023-03-28T13:20:25.118Z,6.22
2023-03-28T13:22:58.838Z,5.88
2023-03-28T13:25:32.741Z,7.25
2023-03-28T13:28:11.873Z,9.07
2023-03-28T13:30:44.324Z,7.00
2023-03-28T13:33:26.763Z,4.03
2023-03-28T13:35:59.716Z,6.72
2023-03-28T13:38:29.907Z,9.88
2023-03-28T13:41:06.699Z,10.63
2023-03-28T13:43:51.410Z,9.63
2023-03-28T13:46:21.451Z,9.65
2023-03-28T13:48:53.876Z,9.27
2023-03-28T13:51:24.848Z,7.93
2023-03-28T13:53:52.173Z,8.15
2023-03-28T13:56:25.891Z,8.52
2023-03-28T13:58:55.826Z,10.48
2023-03-28T14:01:26.164Z,10.60
2023-03-28T14:03:56.666Z,10.25
2023-03-28T14:06:27.156Z,8.02
2023-03-28T14:08:57.040Z,7.78
2023-03-28T14:11:32.094Z,8.07
2023-03-28T14:14:12.335Z,8.15
2023-03-28T14:16:42.336Z,9.02
2023-03-28T14:19:17.578Z,9.52
2023-03-28T14:21:47.249Z,12.60
2023-03-28T14:24:26.993Z,9.77
2023-03-28T14:27:06.922Z,8.48
2023-03-28T14:29:34.048Z,7.93
2023-03-28T14:32:02.146Z,8.30
2023-03-28T14:34:35.606Z,8.40
2023-03-28T14:37:06.527Z,8.00
2023-03-28T14:39:36.252Z,7.82
2023-03-28T14:42:20.505Z,8.90
2023-03-28T14:44:53.934Z,10.60
2023-03-28T14:47:30.085Z,9.77
2023-03-28T14:49:57.386Z,8.25
2023-03-28T14:52:34.655Z,9.23
2023-03-28T14:55:02.770Z,10.02
2023-03-28T14:57:30.621Z,9.60
2023-03-28T14:59:58.638Z,7.90
2023-03-28T15:02:32.129Z,7.90
2023-03-28T15:07:33.450Z,6.60
2023-03-28T15:10:09.688Z,7.40
2023-03-28T15:12:50.812Z,6.10
2023-03-28T15:15:23.253Z,6.60
2023-03-28T15:17:51.991Z,6.00
2023-03-28T15:20:43.831Z,6.50
2023-03-28T15:23:27.473Z,6.28
2023-03-28T15:25:55.268Z,5.43
2023-03-28T15:28:25.478Z,4.80
2023-03-28T15:30:56.850Z,4.18
2023-03-28T15:33:27.454Z,6.22
2023-03-28T15:36:08.496Z,6.72
2023-03-28T15:38:39.370Z,5.00
2023-03-28T15:41:10.068Z,5.35
2023-03-28T15:43:52.920Z,5.22
2023-03-28T15:46:22.424Z,4.10
2023-03-28T15:48:49.636Z,4.82
2023-03-28T15:51:18.813Z,4.97
2023-03-28T15:53:47.980Z,5.68
2023-03-28T15:56:35.428Z,5.57
2023-03-28T15:59:09.760Z,5.95
2023-03-28T16:01:36.976Z,6.70
2023-03-28T16:04:26.243Z,6.70
2023-03-28T16:07:05.102Z,6.03
2023-03-28T16:09:32.334Z,5.55
2023-03-28T16:12:02.472Z,5.10
2023-03-28T16:14:29.879Z,4.90
2023-03-28T16:16:57.401Z,5.50
2023-03-28T16:19:26.858Z,4.93
2023-03-28T16:21:54.596Z,5.15
2023-03-28T16:24:21.810Z,4.03
2023-03-28T16:26:48.971Z,4.90
2023-03-28T16:29:16.095Z,5.32
2023-03-28T16:31:43.762Z,4.85
2023-03-28T16:34:11.248Z,4.45
2023-03-28T16:36:38.987Z,4.80
2023-03-28T16:39:08.532Z,4.53
2023-03-28T16:41:36.060Z,4.57
2023-03-28T16:44:03.935Z,5.65
2023-03-28T16:46:31.709Z,3.72
2023-03-28T16:48:58.872Z,3.67
2023-03-28T16:51:26.456Z,4.03
2023-03-28T16:53:53.564Z,3.05
2023-03-28T16:56:20.784Z,4.55
2023-03-28T16:58:48.746Z,4.28
2023-03-28T17:01:19.458Z,3.58
2023-03-28T17:03:47.496Z,4.60
2023-03-28T17:06:17.353Z,5.40
2023-03-28T17:08:44.816Z,4.05
2023-03-28T17:11:13.844Z,3.58
2023-03-28T17:13:43.190Z,4.45
2023-03-28T17:16:11.511Z,5.53
2023-03-28T17:18:38.637Z,4.40
2023-03-28T17:21:08.456Z,5.78
2023-03-28T17:23:37.576Z,4.10
2023-03-28T17:26:07.409Z,5.78
2023-03-28T17:28:39.343Z,7.25
2023-03-28T17:31:15.785Z,7.43
2023-03-28T17:33:43.886Z,7.40
2023-03-28T17:36:27.530Z,5.88
2023-03-28T17:38:57.854Z,6.18
2023-03-28T17:41:25.853Z,7.88
2023-03-28T17:43:54.514Z,8.70
2023-03-28T17:46:22.222Z,7.57
2023-03-28T17:48:49.915Z,6.18
2023-03-28T17:51:17.735Z,6.45
2023-03-28T17:53:49.506Z,7.47
2023-03-28T17:56:17.181Z,9.10
2023-03-28T17:58:45.173Z,10.18
2023-03-28T18:01:17.575Z,10.50
2023-03-28T18:03:46.275Z,9.93
2023-03-28T18:06:14.441Z,8.48
2023-03-28T18:08:45.070Z,7.78
2023-03-28T18:11:14.860Z,7.63
2023-03-28T18:13:42.574Z,8.07
2023-03-28T18:16:12.419Z,7.35
2023-03-28T18:18:40.590Z,8.27
2023-03-28T18:21:08.801Z,9.40
2023-03-28T18:23:37.194Z,8.68
2023-03-28T18:26:04.695Z,8.55
2023-03-28T18:28:32.121Z,5.90
2023-03-28T18:31:24.719Z,6.38
2023-03-28T18:33:54.565Z,6.50
2023-03-28T18:36:21.805Z,6.53
2023-03-28T18:38:50.158Z,6.07
2023-03-28T18:41:17.523Z,6.45
2023-03-28T18:43:45.813Z,6.47
2023-03-28T18:46:16.345Z,5.90
2023-03-28T18:48:44.986Z,6.50
2023-03-28T18:51:12.220Z,7.50
2023-03-28T18:53:39.341Z,7.55
2023-03-28T18:56:08.440Z,7.90
2023-03-28T18:58:38.970Z,7.20
2023-03-28T19:01:09.280Z,7.47
2023-03-28T19:03:42.615Z,7.88
2023-03-28T19:06:12.516Z,7.97
2023-03-28T19:08:39.703Z,10.95
2023-03-28T19:11:13.026Z,11.68
2023-03-28T19:13:41.342Z,13.35
2023-03-28T19:16:11.809Z,13.23
2023-03-28T19:18:41.248Z,12.63
2023-03-28T19:21:09.984Z,10.70
2023-03-28T19:23:37.256Z,11.38
2023-03-28T19:26:07.002Z,10.95
2023-03-28T19:28:34.376Z,10.38
2023-03-28T19:31:04.055Z,10.00
2023-03-28T19:33:31.407Z,10.75
2023-03-28T19:35:59.154Z,10.77
2023-03-28T19:38:26.808Z,10.52
2023-03-28T19:40:58.832Z,12.27
2023-03-28T19:43:25.924Z,9.82
2023-03-28T19:45:53.380Z,9.20
2023-03-28T19:48:20.513Z,7.95
2023-03-28T19:50:50.310Z,8.63
2023-03-28T19:53:17.379Z,10.00
2023-03-28T19:55:51.497Z,8.98
2023-03-28T19:58:18.550Z,10.65
2023-03-28T20:00:45.558Z,9.50
2023-03-28T20:03:12.730Z,10.15
2023-03-28T20:05:44.142Z,6.45
2023-03-28T20:08:11.271Z,7.72
2023-03-28T20:10:42.878Z,10.73
2023-03-28T20:13:10.658Z,13.95
2023-03-28T20:15:41.442Z,15.07
2023-03-28T20:18:14.666Z,19.23
2023-03-28T20:20:42.951Z,17.25
2023-03-28T20:23:11.982Z,15.18
2023-03-28T20:25:39.199Z,15.48
2023-03-28T20:28:10.286Z,13.65
2023-03-28T20:30:38.117Z,16.02
2023-03-28T20:33:06.695Z,27.10
2023-03-28T20:35:34.128Z,22.52
2023-03-28T20:38:01.292Z,28.63
2023-03-28T20:40:28.704Z,26.50
2023-03-28T20:42:57.266Z,24.25
2023-03-28T20:45:24.427Z,23.25
2023-03-28T20:48:06.683Z,23.30
2023-03-28T20:50:35.625Z,21.95
2023-03-28T20:53:06.480Z,21.40
2023-03-28T20:55:34.786Z,22.90
2023-03-28T20:58:02.327Z,24.77
2023-03-28T21:00:30.689Z,24.13
2023-03-28T21:02:58.056Z,22.25
2023-03-28T21:05:27.385Z,19.80
2023-03-28T21:07:55.810Z,23.27
2023-03-28T21:10:23.391Z,21.45
2023-03-28T21:12:51.175Z,23.83
2023-03-28T21:15:18.430Z,20.35
2023-03-28T21:17:49.338Z,17.77
2023-03-28T21:20:16.724Z,18.23
2023-03-28T21:22:43.740Z,18.48
2023-03-28T21:25:10.859Z,18.02
2023-03-28T21:27:38.195Z,17.65
2023-03-28T21:30:08.225Z,17.80
2023-03-28T21:32:36.187Z,14.27
2023-03-28T21:35:04.377Z,13.65
2023-03-28T21:37:31.712Z,13.23
2023-03-28T21:39:58.744Z,11.75
2023-03-28T21:42:27.453Z,11.82
2023-03-28T21:44:54.485Z,10.07
2023-03-28T21:47:21.653Z,11.88
2023-03-28T21:49:49.772Z,11.52
2023-03-28T21:52:16.869Z,10.73
2023-03-28T21:54:44.076Z,10.35
2023-03-28T21:57:11.401Z,7.80
2023-03-28T21:59:40.365Z,7.05
2023-03-28T22:02:08.636Z,6.63
2023-03-28T22:04:37.042Z,7.07
2023-03-28T22:09:31.610Z,7.68
2023-03-28T22:11:59.815Z,8.10
2023-03-28T22:14:27.514Z,7.07
2023-03-28T22:16:55.576Z,6.80
2023-03-28T22:19:22.679Z,6.40
2023-03-28T22:21:49.813Z,7.38
2023-03-28T22:24:18.228Z,6.45
2023-03-28T22:26:45.304Z,6.07
2023-03-28T22:29:12.443Z,6.00
2023-03-28T22:31:39.954Z,5.53
2023-03-28T22:34:07.431Z,6.93
2023-03-28T22:36:34.831Z,5.80
2023-03-28T22:39:02.352Z,11.30
2023-03-28T22:41:32.339Z,17.98
2023-03-28T22:43:59.676Z,23.15
2023-03-28T22:46:26.815Z,22.35
2023-03-28T22:48:58.820Z,19.83
2023-03-28T22:51:28.372Z,21.05
2023-03-28T22:54:00.453Z,20.42
2023-03-28T22:56:28.170Z,24.95
2023-03-28T22:58:56.140Z,30.48
2023-03-28T23:01:26.200Z,37.72
2023-03-28T23:03:53.622Z,24.27
2023-03-28T23:06:20.716Z,16.08
2023-03-28T23:08:47.818Z,13.43
2023-03-28T23:11:14.934Z,8.48
2023-03-28T23:13:42.037Z,7.32
2023-03-28T23:16:09.284Z,7.90
2023-03-28T23:18:36.734Z,6.63
2023-03-28T23:21:04.243Z,6.53
2023-03-28T23:23:32.556Z,6.20
2023-03-28T23:25:59.984Z,6.55
2023-03-28T23:28:26.979Z,6.60
2023-03-28T23:30:54.174Z,6.30
2023-03-28T23:33:21.512Z,4.78
2023-03-28T23:35:48.723Z,4.57
2023-03-28T23:38:17.790Z,4.20
2023-03-28T23:40:45.901Z,5.25
2023-03-28T23:43:13.219Z,3.67
2023-03-28T23:45:40.450Z,2.58
2023-03-28T23:48:09.382Z,3.40
2023-03-28T23:50:36.713Z,2.80
2023-03-28T23:53:04.850Z,2.15
2023-03-28T23:55:32.358Z,2.20
2023-03-28T23:58:02.001Z,2.13
